UPLA180 UNOO-USTR
Flight info
| Callsign | UPLA180 |
|---|---|
| Flight time | 2h 11m |
| Altitude | FL100 |
| Route | BUNET B236 LUKAS A305 DOMEK |
| Aircraft | DA42/L-SDFGRY/C |
Departure
| Time | 2026-05-08 12:02 |
|---|---|
| Airport | Omsk Central Airport (UNOO) |
Arrival
| Time | 2026-05-08 14:13 |
|---|---|
| Airport | Roshchino International Airport (USTR) |
| Time | Latitude | Longitude | Altitude | Speed | Heading |
|---|---|---|---|---|---|
| 2026-05-08 11:52 | 54.96300 | 73.31956 | 296 ft | 0 kts | 137° |
| 2026-05-08 11:59 | 54.96283 | 73.32106 | 295 ft | 14 kts | 39° |
| 2026-05-08 11:59 | 54.96373 | 73.32221 | 294 ft | 18 kts | 34° |
| 2026-05-08 11:59 | 54.96497 | 73.32204 | 292 ft | 20 kts | 347° |
| 2026-05-08 11:59 | 54.96643 | 73.32146 | 297 ft | 23 kts | 346° |
| 2026-05-08 12:00 | 54.96740 | 73.32107 | 300 ft | 0 kts | 347° |
| 2026-05-08 12:00 | 54.96776 | 73.32089 | 302 ft | 25 kts | 344° |
| 2026-05-08 12:01 | 54.96846 | 73.32019 | 304 ft | 0 kts | 253° |
| 2026-05-08 12:01 | 54.96831 | 73.31917 | 305 ft | 34 kts | 256° |
| 2026-05-08 12:01 | 54.96743 | 73.31223 | 305 ft | 78 kts | 256° |
| 2026-05-08 12:02 | 54.96629 | 73.30234 | 454 ft | 87 kts | 254° |
| 2026-05-08 12:02 | 54.96483 | 73.29169 | 698 ft | 97 kts | 251° |
| 2026-05-08 12:02 | 54.96320 | 73.28016 | 923 ft | 103 kts | 253° |
| 2026-05-08 12:02 | 54.96157 | 73.26835 | 1187 ft | 100 kts | 254° |
| 2026-05-08 12:03 | 54.95993 | 73.25631 | 1386 ft | 103 kts | 254° |
| 2026-05-08 12:03 | 54.95829 | 73.24405 | 1640 ft | 105 kts | 251° |
| 2026-05-08 12:03 | 54.95663 | 73.23170 | 1916 ft | 104 kts | 253° |
| 2026-05-08 12:03 | 54.95499 | 73.21952 | 2179 ft | 105 kts | 253° |
| 2026-05-08 12:04 | 54.95328 | 73.20698 | 2385 ft | 107 kts | 254° |
| 2026-05-08 12:04 | 54.95158 | 73.19440 | 2626 ft | 107 kts | 255° |
| 2026-05-08 12:04 | 54.94985 | 73.18163 | 2820 ft | 109 kts | 255° |
| 2026-05-08 12:04 | 54.94815 | 73.16893 | 3023 ft | 107 kts | 253° |
| 2026-05-08 12:05 | 54.94644 | 73.15625 | 3196 ft | 110 kts | 253° |
| 2026-05-08 12:05 | 54.94469 | 73.14324 | 3390 ft | 111 kts | 254° |
| 2026-05-08 12:05 | 54.94292 | 73.13020 | 3591 ft | 111 kts | 254° |
| 2026-05-08 12:05 | 54.94116 | 73.11715 | 3823 ft | 112 kts | 254° |
| 2026-05-08 12:06 | 54.93935 | 73.10386 | 4040 ft | 114 kts | 254° |
| 2026-05-08 12:06 | 54.93754 | 73.09043 | 4240 ft | 116 kts | 255° |
| 2026-05-08 12:06 | 54.93569 | 73.07680 | 4443 ft | 117 kts | 255° |
| 2026-05-08 12:06 | 54.93383 | 73.06307 | 4653 ft | 117 kts | 256° |
| 2026-05-08 12:07 | 54.93271 | 73.04902 | 4855 ft | 119 kts | 278° |
| 2026-05-08 12:07 | 54.93653 | 73.03677 | 5065 ft | 118 kts | 319° |
| 2026-05-08 12:07 | 54.94271 | 73.02719 | 5234 ft | 121 kts | 322° |
| 2026-05-08 12:07 | 54.94908 | 73.01760 | 5443 ft | 121 kts | 322° |
| 2026-05-08 12:08 | 54.95546 | 73.00797 | 5663 ft | 121 kts | 321° |
| 2026-05-08 12:08 | 54.96172 | 72.99845 | 5881 ft | 121 kts | 322° |
| 2026-05-08 12:08 | 54.96817 | 72.98865 | 6063 ft | 124 kts | 322° |
| 2026-05-08 12:08 | 54.97462 | 72.97882 | 6283 ft | 123 kts | 321° |
| 2026-05-08 12:09 | 54.98100 | 72.96911 | 6491 ft | 123 kts | 322° |
| 2026-05-08 12:09 | 54.98743 | 72.95931 | 6687 ft | 122 kts | 321° |
| 2026-05-08 12:09 | 54.99371 | 72.94970 | 6915 ft | 121 kts | 321° |
| 2026-05-08 12:09 | 55.00008 | 72.93996 | 7106 ft | 123 kts | 321° |
| 2026-05-08 12:10 | 55.00648 | 72.93020 | 7322 ft | 122 kts | 321° |
| 2026-05-08 12:10 | 55.01284 | 72.92048 | 7527 ft | 122 kts | 321° |
| 2026-05-08 12:10 | 55.01927 | 72.91065 | 7712 ft | 124 kts | 321° |
| 2026-05-08 12:10 | 55.02577 | 72.90072 | 7930 ft | 124 kts | 321° |
| 2026-05-08 12:11 | 55.03225 | 72.89079 | 8159 ft | 125 kts | 321° |
| 2026-05-08 12:11 | 55.03874 | 72.88086 | 8389 ft | 124 kts | 320° |
| 2026-05-08 12:11 | 55.04520 | 72.87095 | 8615 ft | 124 kts | 320° |
| 2026-05-08 12:11 | 55.05166 | 72.86104 | 8840 ft | 124 kts | 320° |
| 2026-05-08 12:12 | 55.05811 | 72.85116 | 9060 ft | 124 kts | 320° |
| 2026-05-08 12:12 | 55.06460 | 72.84121 | 9272 ft | 124 kts | 320° |
| 2026-05-08 12:12 | 55.07106 | 72.83129 | 9488 ft | 124 kts | 319° |
| 2026-05-08 12:12 | 55.07752 | 72.82137 | 9703 ft | 124 kts | 319° |
| 2026-05-08 12:13 | 55.08401 | 72.81140 | 9875 ft | 127 kts | 319° |
| 2026-05-08 12:13 | 55.09105 | 72.80062 | 9886 ft | 141 kts | 319° |
| 2026-05-08 12:13 | 55.09869 | 72.78890 | 9886 ft | 152 kts | 316° |
| 2026-05-08 12:13 | 55.10679 | 72.77642 | 9874 ft | 159 kts | 317° |
| 2026-05-08 12:14 | 55.11517 | 72.76350 | 9875 ft | 162 kts | 317° |
| 2026-05-08 12:14 | 55.12368 | 72.75039 | 9876 ft | 164 kts | 317° |
| 2026-05-08 12:14 | 55.13225 | 72.73718 | 9879 ft | 165 kts | 317° |
| 2026-05-08 12:14 | 55.14088 | 72.72387 | 9877 ft | 166 kts | 317° |
| 2026-05-08 12:15 | 55.14955 | 72.71049 | 9877 ft | 167 kts | 317° |
| 2026-05-08 12:15 | 55.15819 | 72.69696 | 9878 ft | 167 kts | 313° |
| 2026-05-08 12:15 | 55.16468 | 72.68045 | 9892 ft | 165 kts | 297° |
| 2026-05-08 12:15 | 55.17027 | 72.66311 | 9893 ft | 164 kts | 295° |
| 2026-05-08 12:16 | 55.17579 | 72.64570 | 9890 ft | 164 kts | 296° |
| 2026-05-08 12:16 | 55.18134 | 72.62829 | 9889 ft | 163 kts | 296° |
| 2026-05-08 12:16 | 55.18685 | 72.61105 | 9890 ft | 162 kts | 297° |
| 2026-05-08 12:16 | 55.19238 | 72.59388 | 9889 ft | 162 kts | 296° |
| 2026-05-08 12:17 | 55.19788 | 72.57669 | 9887 ft | 162 kts | 296° |
| 2026-05-08 12:17 | 55.20337 | 72.55950 | 9886 ft | 162 kts | 296° |
| 2026-05-08 12:17 | 55.20885 | 72.54234 | 9886 ft | 161 kts | 296° |
| 2026-05-08 12:17 | 55.21432 | 72.52521 | 9888 ft | 162 kts | 296° |
| 2026-05-08 12:18 | 55.21982 | 72.50798 | 9889 ft | 163 kts | 296° |
| 2026-05-08 12:18 | 55.22533 | 72.49069 | 9888 ft | 163 kts | 296° |
| 2026-05-08 12:18 | 55.23086 | 72.47335 | 9889 ft | 164 kts | 295° |
| 2026-05-08 12:18 | 55.23642 | 72.45589 | 9886 ft | 165 kts | 295° |
| 2026-05-08 12:19 | 55.24200 | 72.43834 | 9887 ft | 165 kts | 296° |
| 2026-05-08 12:19 | 55.24757 | 72.42080 | 9885 ft | 165 kts | 296° |
| 2026-05-08 12:19 | 55.25310 | 72.40336 | 9891 ft | 163 kts | 297° |
| 2026-05-08 12:19 | 55.25860 | 72.38612 | 9890 ft | 162 kts | 297° |
| 2026-05-08 12:20 | 55.26407 | 72.36892 | 9891 ft | 162 kts | 296° |
| 2026-05-08 12:20 | 55.26950 | 72.35172 | 9891 ft | 161 kts | 297° |
| 2026-05-08 12:20 | 55.27494 | 72.33454 | 9891 ft | 161 kts | 297° |
| 2026-05-08 12:20 | 55.28039 | 72.31736 | 9887 ft | 161 kts | 296° |
| 2026-05-08 12:21 | 55.28583 | 72.30022 | 9892 ft | 162 kts | 296° |
| 2026-05-08 12:21 | 55.29125 | 72.28292 | 9885 ft | 162 kts | 296° |
| 2026-05-08 12:21 | 55.29672 | 72.26569 | 9885 ft | 162 kts | 296° |
| 2026-05-08 12:21 | 55.30217 | 72.24839 | 9882 ft | 162 kts | 296° |
| 2026-05-08 12:22 | 55.30759 | 72.23114 | 9887 ft | 162 kts | 296° |
| 2026-05-08 12:22 | 55.31304 | 72.21390 | 9887 ft | 162 kts | 297° |
| 2026-05-08 12:22 | 55.31851 | 72.19670 | 9886 ft | 161 kts | 296° |
| 2026-05-08 12:22 | 55.32391 | 72.17949 | 9890 ft | 161 kts | 295° |
| 2026-05-08 12:23 | 55.32929 | 72.16227 | 9890 ft | 161 kts | 296° |
| 2026-05-08 12:23 | 55.33469 | 72.14509 | 9890 ft | 161 kts | 297° |
| 2026-05-08 12:23 | 55.34011 | 72.12789 | 9890 ft | 161 kts | 297° |
| 2026-05-08 12:23 | 55.34551 | 72.11068 | 9890 ft | 161 kts | 297° |
| 2026-05-08 12:24 | 55.35092 | 72.09346 | 9882 ft | 161 kts | 297° |
| 2026-05-08 12:24 | 55.35632 | 72.07622 | 9884 ft | 161 kts | 297° |
| 2026-05-08 12:24 | 55.36171 | 72.05899 | 9881 ft | 161 kts | 297° |
| 2026-05-08 12:24 | 55.36709 | 72.04179 | 9878 ft | 161 kts | 297° |
| 2026-05-08 12:25 | 55.37246 | 72.02463 | 9883 ft | 161 kts | 297° |
| 2026-05-08 12:25 | 55.37783 | 72.00743 | 9881 ft | 161 kts | 297° |
| 2026-05-08 12:25 | 55.38320 | 71.99023 | 9884 ft | 161 kts | 297° |
| 2026-05-08 12:25 | 55.38859 | 71.97298 | 9884 ft | 161 kts | 297° |
| 2026-05-08 12:26 | 55.39397 | 71.95570 | 9883 ft | 162 kts | 296° |
| 2026-05-08 12:26 | 55.39937 | 71.93833 | 9890 ft | 162 kts | 297° |
| 2026-05-08 12:26 | 55.40477 | 71.92100 | 9888 ft | 162 kts | 297° |
| 2026-05-08 12:26 | 55.41018 | 71.90363 | 9890 ft | 162 kts | 297° |
| 2026-05-08 12:27 | 55.41559 | 71.88627 | 9888 ft | 162 kts | 296° |
| 2026-05-08 12:27 | 55.42098 | 71.86889 | 9889 ft | 162 kts | 296° |
| 2026-05-08 12:27 | 55.42637 | 71.85151 | 9884 ft | 162 kts | 297° |
| 2026-05-08 12:27 | 55.43177 | 71.83414 | 9888 ft | 162 kts | 296° |
| 2026-05-08 12:28 | 55.43717 | 71.81671 | 9882 ft | 162 kts | 297° |
| 2026-05-08 12:28 | 55.44255 | 71.79930 | 9883 ft | 162 kts | 297° |
| 2026-05-08 12:28 | 55.44794 | 71.78194 | 9885 ft | 162 kts | 297° |
| 2026-05-08 12:28 | 55.45332 | 71.76457 | 9883 ft | 162 kts | 297° |
| 2026-05-08 12:29 | 55.45868 | 71.74718 | 9884 ft | 162 kts | 297° |
| 2026-05-08 12:29 | 55.46405 | 71.72981 | 9885 ft | 162 kts | 297° |
| 2026-05-08 12:29 | 55.46942 | 71.71243 | 9887 ft | 162 kts | 296° |
| 2026-05-08 12:29 | 55.47476 | 71.69510 | 9887 ft | 161 kts | 295° |
| 2026-05-08 12:30 | 55.48008 | 71.67783 | 9887 ft | 160 kts | 295° |
| 2026-05-08 12:30 | 55.48538 | 71.66061 | 9886 ft | 160 kts | 295° |
| 2026-05-08 12:30 | 55.49068 | 71.64339 | 9893 ft | 160 kts | 295° |
| 2026-05-08 12:30 | 55.49599 | 71.62611 | 9894 ft | 161 kts | 295° |
| 2026-05-08 12:31 | 55.50133 | 71.60874 | 9895 ft | 162 kts | 296° |
| 2026-05-08 12:31 | 55.50667 | 71.59136 | 9894 ft | 162 kts | 296° |
| 2026-05-08 12:31 | 55.51203 | 71.57391 | 9892 ft | 162 kts | 296° |
| 2026-05-08 12:31 | 55.51738 | 71.55645 | 9893 ft | 162 kts | 297° |
| 2026-05-08 12:32 | 55.52274 | 71.53896 | 9890 ft | 162 kts | 296° |
| 2026-05-08 12:32 | 55.52810 | 71.52147 | 9892 ft | 162 kts | 296° |
| 2026-05-08 12:32 | 55.53342 | 71.50407 | 9889 ft | 161 kts | 295° |
| 2026-05-08 12:32 | 55.53871 | 71.48676 | 9892 ft | 160 kts | 295° |
| 2026-05-08 12:33 | 55.54399 | 71.46947 | 9896 ft | 160 kts | 295° |
| 2026-05-08 12:33 | 55.54927 | 71.45218 | 9898 ft | 160 kts | 295° |
| 2026-05-08 12:33 | 55.55452 | 71.43490 | 9891 ft | 160 kts | 297° |
| 2026-05-08 12:33 | 55.55980 | 71.41765 | 9898 ft | 160 kts | 297° |
| 2026-05-08 12:34 | 55.56506 | 71.40041 | 9886 ft | 160 kts | 296° |
| 2026-05-08 12:34 | 55.57030 | 71.38319 | 9892 ft | 159 kts | 296° |
| 2026-05-08 12:34 | 55.57553 | 71.36596 | 9889 ft | 159 kts | 296° |
| 2026-05-08 12:34 | 55.58077 | 71.34877 | 9890 ft | 159 kts | 296° |
| 2026-05-08 12:35 | 55.58600 | 71.33156 | 9886 ft | 159 kts | 295° |
| 2026-05-08 12:35 | 55.59121 | 71.31433 | 9883 ft | 159 kts | 296° |
| 2026-05-08 12:35 | 55.59644 | 71.29708 | 9884 ft | 160 kts | 296° |
| 2026-05-08 12:35 | 55.60168 | 71.27980 | 9887 ft | 160 kts | 295° |
| 2026-05-08 12:36 | 55.60692 | 71.26249 | 9888 ft | 160 kts | 295° |
| 2026-05-08 12:36 | 55.61215 | 71.24516 | 9897 ft | 160 kts | 297° |
| 2026-05-08 12:36 | 55.61741 | 71.22782 | 9892 ft | 160 kts | 297° |
| 2026-05-08 12:36 | 55.62266 | 71.21047 | 9898 ft | 160 kts | 297° |
| 2026-05-08 12:37 | 55.62791 | 71.19309 | 9894 ft | 161 kts | 296° |
| 2026-05-08 12:37 | 55.63316 | 71.17568 | 9895 ft | 161 kts | 297° |
| 2026-05-08 12:37 | 55.63841 | 71.15828 | 9899 ft | 161 kts | 296° |
| 2026-05-08 12:37 | 55.64367 | 71.14083 | 9893 ft | 161 kts | 296° |
| 2026-05-08 12:38 | 55.64891 | 71.12338 | 9891 ft | 161 kts | 296° |
| 2026-05-08 12:38 | 55.65415 | 71.10597 | 9889 ft | 160 kts | 297° |
| 2026-05-08 12:38 | 55.65938 | 71.08860 | 9884 ft | 160 kts | 297° |
| 2026-05-08 12:38 | 55.66459 | 71.07125 | 9885 ft | 160 kts | 297° |
| 2026-05-08 12:39 | 55.66979 | 71.05392 | 9888 ft | 160 kts | 297° |
| 2026-05-08 12:39 | 55.67498 | 71.03661 | 9886 ft | 160 kts | 297° |
| 2026-05-08 12:39 | 55.68018 | 71.01927 | 9881 ft | 160 kts | 297° |
| 2026-05-08 12:39 | 55.68538 | 71.00191 | 9882 ft | 160 kts | 297° |
| 2026-05-08 12:40 | 55.69056 | 70.98461 | 9887 ft | 159 kts | 296° |
| 2026-05-08 12:40 | 55.69574 | 70.96729 | 9886 ft | 159 kts | 296° |
| 2026-05-08 12:40 | 55.70093 | 70.94994 | 9887 ft | 159 kts | 296° |
| 2026-05-08 12:40 | 55.70609 | 70.93261 | 9885 ft | 159 kts | 296° |
| 2026-05-08 12:41 | 55.71127 | 70.91525 | 9890 ft | 159 kts | 296° |
| 2026-05-08 12:41 | 55.71645 | 70.89791 | 9890 ft | 160 kts | 296° |
| 2026-05-08 12:41 | 55.72162 | 70.88054 | 9890 ft | 160 kts | 296° |
| 2026-05-08 12:41 | 55.72679 | 70.86315 | 9889 ft | 159 kts | 296° |
| 2026-05-08 12:42 | 55.73195 | 70.84580 | 9889 ft | 159 kts | 296° |
| 2026-05-08 12:42 | 55.73714 | 70.82842 | 9890 ft | 160 kts | 296° |
| 2026-05-08 12:42 | 55.74229 | 70.81103 | 9890 ft | 160 kts | 296° |
| 2026-05-08 12:42 | 55.74745 | 70.79366 | 9884 ft | 160 kts | 297° |
| 2026-05-08 12:43 | 55.75262 | 70.77627 | 9881 ft | 160 kts | 296° |
| 2026-05-08 12:43 | 55.75778 | 70.75887 | 9889 ft | 160 kts | 296° |
| 2026-05-08 12:43 | 55.76294 | 70.74139 | 9889 ft | 160 kts | 296° |
| 2026-05-08 12:43 | 55.76811 | 70.72393 | 9889 ft | 160 kts | 296° |
| 2026-05-08 12:44 | 55.77328 | 70.70650 | 9889 ft | 160 kts | 296° |
| 2026-05-08 12:44 | 55.77844 | 70.68905 | 9888 ft | 160 kts | 296° |
| 2026-05-08 12:44 | 55.78358 | 70.67161 | 9890 ft | 160 kts | 295° |
| 2026-05-08 12:44 | 55.78872 | 70.65419 | 9890 ft | 160 kts | 295° |
| 2026-05-08 12:45 | 55.79385 | 70.63677 | 9888 ft | 160 kts | 295° |
| 2026-05-08 12:45 | 55.79900 | 70.61932 | 9885 ft | 160 kts | 295° |
| 2026-05-08 12:45 | 55.80414 | 70.60186 | 9887 ft | 160 kts | 295° |
| 2026-05-08 12:45 | 55.80929 | 70.58434 | 9889 ft | 160 kts | 295° |
| 2026-05-08 12:46 | 55.81444 | 70.56682 | 9887 ft | 160 kts | 295° |
| 2026-05-08 12:46 | 55.81958 | 70.54932 | 9887 ft | 160 kts | 295° |
| 2026-05-08 12:46 | 55.82472 | 70.53184 | 9894 ft | 160 kts | 295° |
| 2026-05-08 12:46 | 55.82985 | 70.51435 | 9907 ft | 159 kts | 295° |
| 2026-05-08 12:47 | 55.83494 | 70.49697 | 9906 ft | 158 kts | 296° |
| 2026-05-08 12:47 | 55.84002 | 70.47962 | 9899 ft | 159 kts | 297° |
| 2026-05-08 12:47 | 55.84513 | 70.46221 | 9897 ft | 159 kts | 297° |
| 2026-05-08 12:47 | 55.85024 | 70.44475 | 9895 ft | 160 kts | 296° |
| 2026-05-08 12:48 | 55.85533 | 70.42728 | 9903 ft | 159 kts | 296° |
| 2026-05-08 12:48 | 55.86045 | 70.40974 | 9898 ft | 160 kts | 297° |
| 2026-05-08 12:48 | 55.86556 | 70.39224 | 9901 ft | 160 kts | 297° |
| 2026-05-08 12:48 | 55.87068 | 70.37470 | 9897 ft | 160 kts | 297° |
| 2026-05-08 12:49 | 55.87579 | 70.35716 | 9892 ft | 160 kts | 297° |
| 2026-05-08 12:49 | 55.88090 | 70.33961 | 9887 ft | 160 kts | 297° |
| 2026-05-08 12:49 | 55.88601 | 70.32206 | 9886 ft | 160 kts | 296° |
| 2026-05-08 12:49 | 55.89112 | 70.30448 | 9887 ft | 160 kts | 296° |
| 2026-05-08 12:50 | 55.89622 | 70.28691 | 9883 ft | 160 kts | 296° |
| 2026-05-08 12:50 | 55.90133 | 70.26930 | 9888 ft | 160 kts | 296° |
| 2026-05-08 12:50 | 55.90644 | 70.25168 | 9888 ft | 160 kts | 296° |
| 2026-05-08 12:50 | 55.91154 | 70.23410 | 9888 ft | 160 kts | 296° |
| 2026-05-08 12:51 | 55.91664 | 70.21650 | 9888 ft | 160 kts | 297° |
| 2026-05-08 12:51 | 55.92681 | 70.18134 | 9892 ft | 160 kts | 297° |
| 2026-05-08 12:51 | 55.93189 | 70.16377 | 9889 ft | 160 kts | 297° |
| 2026-05-08 12:52 | 55.93697 | 70.14617 | 9897 ft | 160 kts | 296° |
| 2026-05-08 12:52 | 55.94712 | 70.11099 | 9897 ft | 160 kts | 296° |
| 2026-05-08 12:52 | 55.95218 | 70.09343 | 9899 ft | 160 kts | 296° |
| 2026-05-08 12:53 | 55.95724 | 70.07583 | 9897 ft | 160 kts | 296° |
| 2026-05-08 12:53 | 55.96231 | 70.05822 | 9899 ft | 160 kts | 296° |
| 2026-05-08 12:53 | 55.96738 | 70.04059 | 9902 ft | 160 kts | 296° |
| 2026-05-08 12:53 | 55.97245 | 70.02293 | 9903 ft | 160 kts | 296° |
| 2026-05-08 12:54 | 55.97752 | 70.00526 | 9900 ft | 160 kts | 296° |
| 2026-05-08 12:54 | 55.98257 | 69.98764 | 9901 ft | 160 kts | 296° |
| 2026-05-08 12:54 | 55.98763 | 69.97000 | 9902 ft | 160 kts | 296° |
| 2026-05-08 12:54 | 55.99268 | 69.95235 | 9902 ft | 160 kts | 296° |
| 2026-05-08 12:55 | 55.99775 | 69.93468 | 9901 ft | 160 kts | 296° |
| 2026-05-08 12:55 | 56.00279 | 69.91701 | 9901 ft | 160 kts | 296° |
| 2026-05-08 12:55 | 56.00785 | 69.89931 | 9904 ft | 160 kts | 296° |
| 2026-05-08 12:55 | 56.01287 | 69.88174 | 9902 ft | 158 kts | 296° |
| 2026-05-08 12:56 | 56.01785 | 69.86429 | 9903 ft | 157 kts | 295° |
| 2026-05-08 12:56 | 56.02279 | 69.84695 | 9904 ft | 157 kts | 295° |
| 2026-05-08 12:56 | 56.02772 | 69.82963 | 9905 ft | 157 kts | 296° |
| 2026-05-08 12:56 | 56.03266 | 69.81228 | 9902 ft | 157 kts | 296° |
| 2026-05-08 12:57 | 56.03759 | 69.79497 | 9902 ft | 156 kts | 296° |
| 2026-05-08 12:57 | 56.04251 | 69.77763 | 9906 ft | 157 kts | 296° |
| 2026-05-08 12:57 | 56.04745 | 69.76026 | 9906 ft | 157 kts | 296° |
| 2026-05-08 12:57 | 56.05239 | 69.74286 | 9906 ft | 157 kts | 296° |
| 2026-05-08 12:58 | 56.05732 | 69.72551 | 9905 ft | 157 kts | 295° |
| 2026-05-08 12:58 | 56.06221 | 69.70820 | 9910 ft | 156 kts | 296° |
| 2026-05-08 12:58 | 56.06713 | 69.69082 | 9911 ft | 157 kts | 296° |
| 2026-05-08 12:58 | 56.07207 | 69.67336 | 9910 ft | 158 kts | 296° |
| 2026-05-08 12:59 | 56.07701 | 69.65590 | 9911 ft | 158 kts | 296° |
| 2026-05-08 12:59 | 56.08194 | 69.63842 | 9913 ft | 158 kts | 296° |
| 2026-05-08 12:59 | 56.08690 | 69.62089 | 9911 ft | 158 kts | 296° |
| 2026-05-08 12:59 | 56.09185 | 69.60332 | 9909 ft | 158 kts | 296° |
| 2026-05-08 13:00 | 56.09679 | 69.58578 | 9911 ft | 158 kts | 296° |
| 2026-05-08 13:00 | 56.10175 | 69.56821 | 9909 ft | 158 kts | 296° |
| 2026-05-08 13:00 | 56.10669 | 69.55065 | 9905 ft | 158 kts | 296° |
| 2026-05-08 13:00 | 56.11162 | 69.53312 | 9914 ft | 158 kts | 296° |
| 2026-05-08 13:01 | 56.11654 | 69.51560 | 9914 ft | 158 kts | 296° |
| 2026-05-08 13:01 | 56.12147 | 69.49806 | 9914 ft | 158 kts | 296° |
| 2026-05-08 13:01 | 56.12638 | 69.48056 | 9914 ft | 158 kts | 296° |
| 2026-05-08 13:01 | 56.13130 | 69.46300 | 9914 ft | 158 kts | 296° |
| 2026-05-08 13:02 | 56.13622 | 69.44546 | 9913 ft | 158 kts | 296° |
| 2026-05-08 13:02 | 56.14112 | 69.42792 | 9914 ft | 158 kts | 296° |
| 2026-05-08 13:02 | 56.14598 | 69.41038 | 9912 ft | 158 kts | 296° |
| 2026-05-08 13:02 | 56.15082 | 69.39269 | 9911 ft | 158 kts | 295° |
| 2026-05-08 13:03 | 56.15567 | 69.37502 | 9914 ft | 158 kts | 295° |
| 2026-05-08 13:03 | 56.16050 | 69.35738 | 9914 ft | 158 kts | 296° |
| 2026-05-08 13:03 | 56.16534 | 69.33972 | 9914 ft | 158 kts | 296° |
| 2026-05-08 13:03 | 56.17017 | 69.32209 | 9915 ft | 158 kts | 296° |
| 2026-05-08 13:04 | 56.17502 | 69.30439 | 9912 ft | 158 kts | 295° |
| 2026-05-08 13:04 | 56.17984 | 69.28672 | 9924 ft | 158 kts | 295° |
| 2026-05-08 13:04 | 56.18466 | 69.26910 | 9917 ft | 157 kts | 295° |
| 2026-05-08 13:04 | 56.18942 | 69.25171 | 9920 ft | 155 kts | 294° |
| 2026-05-08 13:05 | 56.19411 | 69.23444 | 9917 ft | 154 kts | 294° |
| 2026-05-08 13:05 | 56.19880 | 69.21723 | 9914 ft | 153 kts | 294° |
| 2026-05-08 13:05 | 56.20345 | 69.20009 | 9915 ft | 153 kts | 295° |
| 2026-05-08 13:05 | 56.20815 | 69.18289 | 9916 ft | 154 kts | 295° |
| 2026-05-08 13:06 | 56.21287 | 69.16560 | 9918 ft | 155 kts | 294° |
| 2026-05-08 13:06 | 56.21757 | 69.14833 | 9920 ft | 154 kts | 294° |
| 2026-05-08 13:06 | 56.22225 | 69.13099 | 9918 ft | 155 kts | 294° |
| 2026-05-08 13:06 | 56.22696 | 69.11365 | 9917 ft | 155 kts | 294° |
| 2026-05-08 13:07 | 56.23167 | 69.09630 | 9918 ft | 155 kts | 295° |
| 2026-05-08 13:07 | 56.23638 | 69.07893 | 9917 ft | 155 kts | 295° |
| 2026-05-08 13:07 | 56.24108 | 69.06155 | 9914 ft | 155 kts | 295° |
| 2026-05-08 13:07 | 56.24578 | 69.04420 | 9916 ft | 155 kts | 295° |
| 2026-05-08 13:08 | 56.25048 | 69.02681 | 9922 ft | 155 kts | 295° |
| 2026-05-08 13:08 | 56.25518 | 69.00941 | 9923 ft | 155 kts | 294° |
| 2026-05-08 13:08 | 56.25990 | 68.99193 | 9922 ft | 155 kts | 295° |
| 2026-05-08 13:08 | 56.26460 | 68.97450 | 9923 ft | 156 kts | 295° |
| 2026-05-08 13:09 | 56.26932 | 68.95698 | 9919 ft | 156 kts | 295° |
| 2026-05-08 13:09 | 56.27403 | 68.93951 | 9919 ft | 156 kts | 295° |
| 2026-05-08 13:09 | 56.27874 | 68.92199 | 9916 ft | 156 kts | 295° |
| 2026-05-08 13:09 | 56.28347 | 68.90442 | 9917 ft | 157 kts | 294° |
| 2026-05-08 13:10 | 56.28819 | 68.88684 | 9919 ft | 157 kts | 294° |
| 2026-05-08 13:10 | 56.29293 | 68.86915 | 9920 ft | 157 kts | 294° |
| 2026-05-08 13:10 | 56.29769 | 68.85144 | 9914 ft | 157 kts | 294° |
| 2026-05-08 13:10 | 56.30243 | 68.83376 | 9915 ft | 157 kts | 294° |
| 2026-05-08 13:11 | 56.30717 | 68.81602 | 9918 ft | 158 kts | 294° |
| 2026-05-08 13:11 | 56.31193 | 68.79828 | 9919 ft | 158 kts | 294° |
| 2026-05-08 13:11 | 56.31669 | 68.78047 | 9920 ft | 158 kts | 294° |
| 2026-05-08 13:11 | 56.32143 | 68.76271 | 9919 ft | 158 kts | 294° |
| 2026-05-08 13:12 | 56.32619 | 68.74489 | 9918 ft | 158 kts | 294° |
| 2026-05-08 13:12 | 56.33093 | 68.72715 | 9918 ft | 157 kts | 294° |
| 2026-05-08 13:12 | 56.33565 | 68.70943 | 9917 ft | 157 kts | 294° |
| 2026-05-08 13:12 | 56.34037 | 68.69167 | 9918 ft | 157 kts | 294° |
| 2026-05-08 13:13 | 56.34510 | 68.67393 | 9917 ft | 157 kts | 294° |
| 2026-05-08 13:13 | 56.34982 | 68.65617 | 9921 ft | 157 kts | 294° |
| 2026-05-08 13:13 | 56.35452 | 68.63851 | 9927 ft | 156 kts | 294° |
| 2026-05-08 13:13 | 56.35918 | 68.62092 | 9928 ft | 156 kts | 294° |
| 2026-05-08 13:14 | 56.36386 | 68.60329 | 9920 ft | 156 kts | 293° |
| 2026-05-08 13:14 | 56.36852 | 68.58580 | 9920 ft | 155 kts | 292° |
| 2026-05-08 13:14 | 56.37313 | 68.56833 | 9919 ft | 154 kts | 292° |
| 2026-05-08 13:14 | 56.37771 | 68.55100 | 9919 ft | 153 kts | 292° |
| 2026-05-08 13:15 | 56.38230 | 68.53364 | 9922 ft | 153 kts | 292° |
| 2026-05-08 13:15 | 56.38687 | 68.51635 | 9927 ft | 153 kts | 292° |
| 2026-05-08 13:15 | 56.39144 | 68.49907 | 9926 ft | 153 kts | 292° |
| 2026-05-08 13:15 | 56.39600 | 68.48180 | 9927 ft | 153 kts | 292° |
| 2026-05-08 13:16 | 56.40056 | 68.46450 | 9927 ft | 153 kts | 292° |
| 2026-05-08 13:16 | 56.40511 | 68.44723 | 9928 ft | 153 kts | 292° |
| 2026-05-08 13:16 | 56.40967 | 68.42990 | 9927 ft | 153 kts | 292° |
| 2026-05-08 13:16 | 56.41422 | 68.41259 | 9924 ft | 154 kts | 292° |
| 2026-05-08 13:17 | 56.41880 | 68.39519 | 9924 ft | 154 kts | 292° |
| 2026-05-08 13:17 | 56.42337 | 68.37775 | 9922 ft | 154 kts | 293° |
| 2026-05-08 13:17 | 56.42797 | 68.36026 | 9920 ft | 154 kts | 293° |
| 2026-05-08 13:17 | 56.43256 | 68.34280 | 9924 ft | 154 kts | 293° |
| 2026-05-08 13:18 | 56.43714 | 68.32538 | 9921 ft | 153 kts | 292° |
| 2026-05-08 13:18 | 56.44167 | 68.30798 | 9922 ft | 153 kts | 292° |
| 2026-05-08 13:18 | 56.44620 | 68.29065 | 9923 ft | 153 kts | 292° |
| 2026-05-08 13:18 | 56.45073 | 68.27335 | 9925 ft | 153 kts | 292° |
| 2026-05-08 13:19 | 56.45525 | 68.25603 | 9931 ft | 153 kts | 292° |
| 2026-05-08 13:19 | 56.45977 | 68.23869 | 9929 ft | 153 kts | 293° |
| 2026-05-08 13:19 | 56.46432 | 68.22126 | 9931 ft | 154 kts | 294° |
| 2026-05-08 13:19 | 56.46890 | 68.20375 | 9931 ft | 155 kts | 294° |
| 2026-05-08 13:20 | 56.47350 | 68.18615 | 9928 ft | 155 kts | 292° |
| 2026-05-08 13:20 | 56.47805 | 68.16857 | 9932 ft | 154 kts | 293° |
| 2026-05-08 13:20 | 56.48263 | 68.15097 | 9932 ft | 155 kts | 293° |
| 2026-05-08 13:20 | 56.48723 | 68.13330 | 9932 ft | 156 kts | 293° |
| 2026-05-08 13:21 | 56.49183 | 68.11561 | 9928 ft | 156 kts | 292° |
| 2026-05-08 13:21 | 56.49641 | 68.09790 | 9929 ft | 156 kts | 292° |
| 2026-05-08 13:21 | 56.50100 | 68.08014 | 9928 ft | 156 kts | 293° |
| 2026-05-08 13:21 | 56.50562 | 68.06236 | 9931 ft | 156 kts | 292° |
| 2026-05-08 13:22 | 56.51025 | 68.04452 | 9926 ft | 157 kts | 292° |
| 2026-05-08 13:22 | 56.51485 | 68.02670 | 9924 ft | 157 kts | 292° |
| 2026-05-08 13:22 | 56.51945 | 68.00884 | 9935 ft | 156 kts | 293° |
| 2026-05-08 13:22 | 56.52403 | 67.99115 | 9933 ft | 155 kts | 292° |
| 2026-05-08 13:23 | 56.52857 | 67.97357 | 9934 ft | 154 kts | 293° |
| 2026-05-08 13:23 | 56.53307 | 67.95616 | 9934 ft | 152 kts | 291° |
| 2026-05-08 13:23 | 56.53751 | 67.93893 | 9933 ft | 151 kts | 291° |
| 2026-05-08 13:23 | 56.54189 | 67.92181 | 9932 ft | 150 kts | 292° |
| 2026-05-08 13:24 | 56.54629 | 67.90465 | 9934 ft | 150 kts | 292° |
| 2026-05-08 13:24 | 56.55073 | 67.88747 | 9936 ft | 151 kts | 292° |
| 2026-05-08 13:24 | 56.55517 | 67.87023 | 9935 ft | 151 kts | 292° |
| 2026-05-08 13:24 | 56.55960 | 67.85297 | 9936 ft | 151 kts | 292° |
| 2026-05-08 13:25 | 56.56402 | 67.83569 | 9932 ft | 152 kts | 292° |
| 2026-05-08 13:25 | 56.56844 | 67.81842 | 9936 ft | 152 kts | 292° |
| 2026-05-08 13:25 | 56.57289 | 67.80105 | 9932 ft | 152 kts | 292° |
| 2026-05-08 13:25 | 56.57733 | 67.78371 | 9931 ft | 152 kts | 292° |
| 2026-05-08 13:26 | 56.58177 | 67.76634 | 9932 ft | 152 kts | 292° |
| 2026-05-08 13:26 | 56.58621 | 67.74894 | 9937 ft | 153 kts | 292° |
| 2026-05-08 13:26 | 56.59067 | 67.73145 | 9935 ft | 153 kts | 293° |
| 2026-05-08 13:26 | 56.59514 | 67.71394 | 9932 ft | 154 kts | 292° |
| 2026-05-08 13:27 | 56.59962 | 67.69635 | 9928 ft | 154 kts | 292° |
| 2026-05-08 13:27 | 56.60407 | 67.67883 | 9930 ft | 153 kts | 292° |
| 2026-05-08 13:27 | 56.60855 | 67.66126 | 9930 ft | 154 kts | 292° |
| 2026-05-08 13:27 | 56.61301 | 67.64380 | 9927 ft | 151 kts | 291° |
| 2026-05-08 13:28 | 56.61735 | 67.62659 | 9925 ft | 150 kts | 291° |
| 2026-05-08 13:28 | 56.62169 | 67.60948 | 9926 ft | 149 kts | 291° |
| 2026-05-08 13:28 | 56.62599 | 67.59233 | 9925 ft | 150 kts | 292° |
| 2026-05-08 13:28 | 56.63038 | 67.57523 | 9928 ft | 150 kts | 292° |
| 2026-05-08 13:29 | 56.63478 | 67.55797 | 9927 ft | 150 kts | 291° |
| 2026-05-08 13:29 | 56.63912 | 67.54085 | 9928 ft | 149 kts | 290° |
| 2026-05-08 13:29 | 56.64342 | 67.52371 | 9915 ft | 150 kts | 290° |
| 2026-05-08 13:29 | 56.64775 | 67.50652 | 9916 ft | 150 kts | 291° |
| 2026-05-08 13:30 | 56.65211 | 67.48919 | 9922 ft | 151 kts | 292° |
| 2026-05-08 13:30 | 56.65650 | 67.47189 | 9929 ft | 151 kts | 292° |
| 2026-05-08 13:30 | 56.66091 | 67.45457 | 9930 ft | 151 kts | 290° |
| 2026-05-08 13:30 | 56.66524 | 67.43724 | 9928 ft | 152 kts | 292° |
| 2026-05-08 13:31 | 56.66960 | 67.41981 | 9928 ft | 152 kts | 292° |
| 2026-05-08 13:31 | 56.67402 | 67.40228 | 9926 ft | 153 kts | 292° |
| 2026-05-08 13:31 | 56.67843 | 67.38478 | 9929 ft | 152 kts | 290° |
| 2026-05-08 13:31 | 56.68279 | 67.36741 | 9927 ft | 151 kts | 291° |
| 2026-05-08 13:32 | 56.68711 | 67.35017 | 9938 ft | 149 kts | 291° |
| 2026-05-08 13:32 | 56.69138 | 67.33308 | 9937 ft | 148 kts | 291° |
| 2026-05-08 13:32 | 56.69564 | 67.31610 | 9929 ft | 148 kts | 292° |
| 2026-05-08 13:32 | 56.69990 | 67.29905 | 9930 ft | 149 kts | 292° |
| 2026-05-08 13:33 | 56.70419 | 67.28194 | 9931 ft | 149 kts | 291° |
| 2026-05-08 13:33 | 56.70845 | 67.26491 | 9932 ft | 148 kts | 291° |
| 2026-05-08 13:33 | 56.71269 | 67.24792 | 9933 ft | 147 kts | 291° |
| 2026-05-08 13:33 | 56.71691 | 67.23099 | 9932 ft | 147 kts | 291° |
| 2026-05-08 13:34 | 56.72112 | 67.21411 | 9936 ft | 148 kts | 291° |
| 2026-05-08 13:34 | 56.72535 | 67.19710 | 9930 ft | 148 kts | 291° |
| 2026-05-08 13:34 | 56.72958 | 67.18011 | 9931 ft | 148 kts | 291° |
| 2026-05-08 13:34 | 56.73383 | 67.16304 | 9925 ft | 148 kts | 291° |
| 2026-05-08 13:35 | 56.73806 | 67.14600 | 9922 ft | 148 kts | 291° |
| 2026-05-08 13:35 | 56.74229 | 67.12900 | 9914 ft | 148 kts | 291° |
| 2026-05-08 13:35 | 56.74650 | 67.11205 | 9917 ft | 147 kts | 291° |
| 2026-05-08 13:35 | 56.75070 | 67.09510 | 9918 ft | 147 kts | 290° |
| 2026-05-08 13:36 | 56.75487 | 67.07824 | 9920 ft | 146 kts | 291° |
| 2026-05-08 13:36 | 56.75905 | 67.06139 | 9924 ft | 146 kts | 291° |
| 2026-05-08 13:36 | 56.76321 | 67.04455 | 9922 ft | 146 kts | 291° |
| 2026-05-08 13:36 | 56.76739 | 67.02765 | 9918 ft | 147 kts | 291° |
| 2026-05-08 13:37 | 56.77155 | 67.01079 | 9921 ft | 146 kts | 291° |
| 2026-05-08 13:37 | 56.77573 | 66.99388 | 9922 ft | 146 kts | 291° |
| 2026-05-08 13:37 | 56.77990 | 66.97695 | 9914 ft | 147 kts | 291° |
| 2026-05-08 13:37 | 56.78408 | 66.95999 | 9916 ft | 147 kts | 291° |
| 2026-05-08 13:38 | 56.78825 | 66.94307 | 9915 ft | 147 kts | 291° |
| 2026-05-08 13:38 | 56.79242 | 66.92614 | 9916 ft | 147 kts | 291° |
| 2026-05-08 13:38 | 56.79660 | 66.90912 | 9916 ft | 147 kts | 291° |
| 2026-05-08 13:38 | 56.80079 | 66.89208 | 9914 ft | 147 kts | 291° |
| 2026-05-08 13:39 | 56.80499 | 66.87504 | 9914 ft | 148 kts | 291° |
| 2026-05-08 13:39 | 56.80917 | 66.85794 | 9918 ft | 148 kts | 291° |
| 2026-05-08 13:39 | 56.81334 | 66.84092 | 9918 ft | 147 kts | 291° |
| 2026-05-08 13:39 | 56.81749 | 66.82395 | 9919 ft | 146 kts | 291° |
| 2026-05-08 13:40 | 56.82163 | 66.80697 | 9920 ft | 147 kts | 291° |
| 2026-05-08 13:40 | 56.82582 | 66.78994 | 9921 ft | 148 kts | 291° |
| 2026-05-08 13:40 | 56.83002 | 66.77275 | 9922 ft | 149 kts | 292° |
| 2026-05-08 13:40 | 56.83423 | 66.75555 | 9928 ft | 149 kts | 291° |
| 2026-05-08 13:41 | 56.83843 | 66.73837 | 9926 ft | 148 kts | 291° |
| 2026-05-08 13:41 | 56.84261 | 66.72114 | 9926 ft | 149 kts | 291° |
| 2026-05-08 13:41 | 56.84680 | 66.70390 | 9923 ft | 149 kts | 291° |
| 2026-05-08 13:41 | 56.85099 | 66.68670 | 9935 ft | 148 kts | 290° |
| 2026-05-08 13:42 | 56.85516 | 66.66961 | 9930 ft | 147 kts | 290° |
| 2026-05-08 13:42 | 56.85927 | 66.65269 | 9930 ft | 146 kts | 290° |
| 2026-05-08 13:42 | 56.86337 | 66.63578 | 9931 ft | 145 kts | 290° |
| 2026-05-08 13:42 | 56.86745 | 66.61898 | 9930 ft | 145 kts | 290° |
| 2026-05-08 13:43 | 56.87153 | 66.60211 | 9927 ft | 145 kts | 290° |
| 2026-05-08 13:43 | 56.87560 | 66.58532 | 9920 ft | 145 kts | 290° |
| 2026-05-08 13:43 | 56.87967 | 66.56851 | 9923 ft | 145 kts | 290° |
| 2026-05-08 13:43 | 56.88374 | 66.55168 | 9925 ft | 145 kts | 290° |
| 2026-05-08 13:44 | 56.88780 | 66.53492 | 9929 ft | 144 kts | 290° |
| 2026-05-08 13:44 | 56.89184 | 66.51816 | 9929 ft | 144 kts | 290° |
| 2026-05-08 13:44 | 56.89588 | 66.50141 | 9929 ft | 144 kts | 290° |
| 2026-05-08 13:44 | 56.89994 | 66.48462 | 9921 ft | 145 kts | 290° |
| 2026-05-08 13:45 | 56.90401 | 66.46770 | 9918 ft | 146 kts | 290° |
| 2026-05-08 13:45 | 56.90810 | 66.45071 | 9920 ft | 147 kts | 290° |
| 2026-05-08 13:45 | 56.91220 | 66.43366 | 9908 ft | 147 kts | 290° |
| 2026-05-08 13:45 | 56.91637 | 66.41635 | 9738 ft | 149 kts | 290° |
| 2026-05-08 13:46 | 56.92048 | 66.39930 | 9545 ft | 145 kts | 290° |
| 2026-05-08 13:46 | 56.92448 | 66.38265 | 9355 ft | 142 kts | 290° |
| 2026-05-08 13:46 | 56.92841 | 66.36622 | 9166 ft | 140 kts | 290° |
| 2026-05-08 13:46 | 56.93228 | 66.35003 | 8983 ft | 139 kts | 290° |
| 2026-05-08 13:47 | 56.93613 | 66.33397 | 8805 ft | 137 kts | 290° |
| 2026-05-08 13:47 | 56.93996 | 66.31797 | 8616 ft | 137 kts | 290° |
| 2026-05-08 13:47 | 56.94376 | 66.30204 | 8435 ft | 137 kts | 290° |
| 2026-05-08 13:47 | 56.94756 | 66.28615 | 8256 ft | 136 kts | 290° |
| 2026-05-08 13:48 | 56.95134 | 66.27031 | 8079 ft | 136 kts | 290° |
| 2026-05-08 13:48 | 56.95513 | 66.25442 | 7899 ft | 136 kts | 290° |
| 2026-05-08 13:48 | 56.95891 | 66.23860 | 7715 ft | 135 kts | 290° |
| 2026-05-08 13:48 | 56.96266 | 66.22282 | 7535 ft | 136 kts | 290° |
| 2026-05-08 13:49 | 56.96643 | 66.20700 | 7355 ft | 136 kts | 290° |
| 2026-05-08 13:49 | 56.97019 | 66.19120 | 7174 ft | 136 kts | 290° |
| 2026-05-08 13:49 | 56.97394 | 66.17540 | 6998 ft | 135 kts | 290° |
| 2026-05-08 13:49 | 56.97768 | 66.15970 | 6821 ft | 134 kts | 290° |
| 2026-05-08 13:50 | 56.98138 | 66.14406 | 6647 ft | 134 kts | 290° |
| 2026-05-08 13:50 | 56.98509 | 66.12845 | 6469 ft | 134 kts | 290° |
| 2026-05-08 13:50 | 56.98879 | 66.11280 | 6289 ft | 134 kts | 290° |
| 2026-05-08 13:50 | 56.99251 | 66.09712 | 6106 ft | 134 kts | 290° |
| 2026-05-08 13:51 | 56.99705 | 66.08212 | 5941 ft | 137 kts | 305° |
| 2026-05-08 13:51 | 57.00457 | 66.07112 | 5930 ft | 144 kts | 326° |
| 2026-05-08 13:51 | 57.01359 | 66.06245 | 5929 ft | 149 kts | 328° |
| 2026-05-08 13:51 | 57.02286 | 66.05374 | 5929 ft | 151 kts | 328° |
| 2026-05-08 13:52 | 57.03226 | 66.04484 | 5927 ft | 153 kts | 328° |
| 2026-05-08 13:52 | 57.04171 | 66.03589 | 5926 ft | 154 kts | 328° |
| 2026-05-08 13:52 | 57.05122 | 66.02690 | 5925 ft | 154 kts | 328° |
| 2026-05-08 13:52 | 57.06074 | 66.01787 | 5930 ft | 155 kts | 328° |
| 2026-05-08 13:53 | 57.07031 | 66.00878 | 5931 ft | 155 kts | 328° |
| 2026-05-08 13:53 | 57.07989 | 65.99968 | 5930 ft | 155 kts | 327° |
| 2026-05-08 13:53 | 57.08941 | 65.99062 | 5930 ft | 154 kts | 328° |
| 2026-05-08 13:53 | 57.09893 | 65.98157 | 5931 ft | 154 kts | 327° |
| 2026-05-08 13:54 | 57.10845 | 65.97249 | 5926 ft | 154 kts | 328° |
| 2026-05-08 13:54 | 57.11795 | 65.96344 | 5926 ft | 154 kts | 327° |
| 2026-05-08 13:54 | 57.12745 | 65.95439 | 5927 ft | 154 kts | 327° |
| 2026-05-08 13:54 | 57.13696 | 65.94531 | 5893 ft | 156 kts | 328° |
| 2026-05-08 13:55 | 57.14667 | 65.93603 | 5695 ft | 157 kts | 327° |
| 2026-05-08 13:55 | 57.15643 | 65.92671 | 5486 ft | 159 kts | 328° |
| 2026-05-08 13:55 | 57.17626 | 65.90774 | 5061 ft | 162 kts | 328° |
| 2026-05-08 13:56 | 57.18468 | 65.89480 | 4928 ft | 153 kts | 304° |
| 2026-05-08 13:56 | 57.18989 | 65.87855 | 4931 ft | 146 kts | 294° |
| 2026-05-08 13:56 | 57.19465 | 65.86205 | 4928 ft | 146 kts | 294° |
| 2026-05-08 13:56 | 57.19938 | 65.84562 | 4934 ft | 145 kts | 294° |
| 2026-05-08 13:57 | 57.20410 | 65.82917 | 4931 ft | 146 kts | 294° |
| 2026-05-08 13:57 | 57.20883 | 65.81271 | 4926 ft | 145 kts | 294° |
| 2026-05-08 13:57 | 57.21352 | 65.79637 | 4919 ft | 144 kts | 294° |
| 2026-05-08 13:57 | 57.21821 | 65.78004 | 4925 ft | 144 kts | 294° |
| 2026-05-08 13:58 | 57.22295 | 65.76369 | 4923 ft | 145 kts | 292° |
| 2026-05-08 13:58 | 57.22761 | 65.74728 | 4927 ft | 144 kts | 292° |
| 2026-05-08 13:58 | 57.23225 | 65.73093 | 4925 ft | 145 kts | 292° |
| 2026-05-08 13:58 | 57.23695 | 65.71455 | 4932 ft | 144 kts | 293° |
| 2026-05-08 13:59 | 57.24160 | 65.69832 | 4925 ft | 142 kts | 292° |
| 2026-05-08 13:59 | 57.24620 | 65.68224 | 4927 ft | 142 kts | 292° |
| 2026-05-08 13:59 | 57.25077 | 65.66623 | 4924 ft | 141 kts | 292° |
| 2026-05-08 13:59 | 57.25534 | 65.65022 | 4924 ft | 141 kts | 293° |
| 2026-05-08 14:00 | 57.25988 | 65.63427 | 4923 ft | 141 kts | 293° |
| 2026-05-08 14:00 | 57.26445 | 65.61823 | 4908 ft | 142 kts | 293° |
| 2026-05-08 14:00 | 57.26904 | 65.60215 | 4909 ft | 142 kts | 292° |
| 2026-05-08 14:00 | 57.27362 | 65.58608 | 4911 ft | 140 kts | 292° |
| 2026-05-08 14:01 | 57.27816 | 65.57016 | 4916 ft | 140 kts | 292° |
| 2026-05-08 14:01 | 57.28267 | 65.55427 | 4910 ft | 140 kts | 292° |
| 2026-05-08 14:01 | 57.28717 | 65.53838 | 4910 ft | 140 kts | 292° |
| 2026-05-08 14:01 | 57.29168 | 65.52248 | 4913 ft | 140 kts | 292° |
| 2026-05-08 14:02 | 57.29620 | 65.50655 | 4913 ft | 140 kts | 292° |
| 2026-05-08 14:02 | 57.30074 | 65.49053 | 4910 ft | 141 kts | 293° |
| 2026-05-08 14:02 | 57.30528 | 65.47451 | 4914 ft | 141 kts | 292° |
| 2026-05-08 14:02 | 57.30981 | 65.45850 | 4916 ft | 141 kts | 292° |
| 2026-05-08 14:03 | 57.31433 | 65.44250 | 4918 ft | 141 kts | 293° |
| 2026-05-08 14:03 | 57.31891 | 65.42634 | 4805 ft | 143 kts | 293° |
| 2026-05-08 14:03 | 57.32349 | 65.41016 | 4617 ft | 142 kts | 292° |
| 2026-05-08 14:03 | 57.32802 | 65.39413 | 4430 ft | 140 kts | 292° |
| 2026-05-08 14:04 | 57.33249 | 65.37823 | 4250 ft | 139 kts | 291° |
| 2026-05-08 14:04 | 57.33700 | 65.36216 | 4072 ft | 145 kts | 291° |
| 2026-05-08 14:04 | 57.34180 | 65.34502 | 3869 ft | 155 kts | 292° |
| 2026-05-08 14:04 | 57.34686 | 65.32704 | 3657 ft | 159 kts | 294° |
| 2026-05-08 14:05 | 57.35198 | 65.30894 | 3453 ft | 159 kts | 296° |
| 2026-05-08 14:05 | 57.35710 | 65.29082 | 3246 ft | 160 kts | 296° |
| 2026-05-08 14:05 | 57.36069 | 65.27132 | 3033 ft | 164 kts | 272° |
| 2026-05-08 14:05 | 57.35914 | 65.25075 | 2934 ft | 158 kts | 243° |
| 2026-05-08 14:06 | 57.35331 | 65.23476 | 2918 ft | 145 kts | 219° |
| 2026-05-08 14:06 | 57.34633 | 65.22181 | 2915 ft | 141 kts | 218° |
| 2026-05-08 14:06 | 57.33944 | 65.20924 | 2912 ft | 138 kts | 218° |
| 2026-05-08 14:06 | 57.33266 | 65.19689 | 2918 ft | 137 kts | 218° |
| 2026-05-08 14:07 | 57.32587 | 65.18453 | 2841 ft | 139 kts | 218° |
| 2026-05-08 14:07 | 57.31888 | 65.17182 | 2652 ft | 144 kts | 217° |
| 2026-05-08 14:07 | 57.31170 | 65.15872 | 2462 ft | 148 kts | 217° |
| 2026-05-08 14:07 | 57.30329 | 65.14870 | 2265 ft | 142 kts | 194° |
| 2026-05-08 14:08 | 57.29378 | 65.14597 | 2118 ft | 136 kts | 170° |
| 2026-05-08 14:08 | 57.28503 | 65.14995 | 2123 ft | 128 kts | 150° |
| 2026-05-08 14:08 | 57.27797 | 65.15920 | 2118 ft | 123 kts | 131° |
| 2026-05-08 14:08 | 57.27199 | 65.17033 | 2120 ft | 122 kts | 133° |
| 2026-05-08 14:09 | 57.26603 | 65.18149 | 2113 ft | 120 kts | 133° |
| 2026-05-08 14:09 | 57.26055 | 65.19170 | 2075 ft | 107 kts | 131° |
| 2026-05-08 14:09 | 57.25555 | 65.20108 | 1972 ft | 101 kts | 130° |
| 2026-05-08 14:09 | 57.25063 | 65.21028 | 1856 ft | 101 kts | 130° |
| 2026-05-08 14:10 | 57.24573 | 65.21946 | 1736 ft | 100 kts | 129° |
| 2026-05-08 14:10 | 57.24099 | 65.22829 | 1622 ft | 95 kts | 129° |
| 2026-05-08 14:10 | 57.23644 | 65.23677 | 1511 ft | 93 kts | 128° |
| 2026-05-08 14:10 | 57.23186 | 65.24534 | 1390 ft | 94 kts | 129° |
| 2026-05-08 14:11 | 57.22726 | 65.25392 | 1285 ft | 92 kts | 129° |
| 2026-05-08 14:11 | 57.22292 | 65.26200 | 1180 ft | 82 kts | 131° |
| 2026-05-08 14:11 | 57.21901 | 65.26926 | 1070 ft | 77 kts | 127° |
| 2026-05-08 14:11 | 57.21522 | 65.27631 | 991 ft | 79 kts | 128° |
| 2026-05-08 14:12 | 57.21133 | 65.28365 | 880 ft | 83 kts | 131° |
| 2026-05-08 14:12 | 57.20721 | 65.29135 | 776 ft | 84 kts | 130° |
| 2026-05-08 14:12 | 57.20305 | 65.29903 | 689 ft | 86 kts | 132° |
| 2026-05-08 14:12 | 57.19884 | 65.30687 | 576 ft | 85 kts | 132° |
| 2026-05-08 14:13 | 57.19470 | 65.31458 | 478 ft | 85 kts | 131° |
| 2026-05-08 14:13 | 57.19058 | 65.32215 | 395 ft | 84 kts | 131° |
| 2026-05-08 14:13 | 57.18699 | 65.32898 | 327 ft | 58 kts | 132° |
| 2026-05-08 14:13 | 57.18571 | 65.33274 | 331 ft | 22 kts | 44° |
| 2026-05-08 14:14 | 57.18619 | 65.33525 | 335 ft | 19 kts | 95° |
| 2026-05-08 14:14 | 57.18633 | 65.33684 | 334 ft | 12 kts | 47° |
| 2026-05-08 14:14 | 57.18652 | 65.33718 | 335 ft | 0 kts | 45° |